Time,TemperatureF,DewpointF,PressureIn,WindDirection,WindDirectionDegrees,WindSpeedMPH,WindSpeedGustMPH,Humidity,HourlyPrecipIn,Conditions,Clouds,dailyrainin,SoftwareType,DateUTC
2013-03-29 00:02:00,42.0,35.0,29.67,SE,135,1.0,5.0,76,3.06,,,-99.99,,2013-03-29 05:02:00,
2013-03-29 00:12:00,42.0,35.0,29.67,SE,135,1.0,5.0,76,3.06,,,-99.99,,2013-03-29 05:12:00,
2013-03-29 00:23:00,43.0,36.0,29.65,East,101,4.0,7.0,76,3.06,,,-99.99,,2013-03-29 05:23:00,
2013-03-29 00:32:00,43.0,36.0,29.67,SE,129,6.0,8.0,76,3.06,,,-99.99,,2013-03-29 05:32:00,
2013-03-29 00:43:00,43.0,36.0,29.67,SE,129,6.0,8.0,76,3.06,,,-99.99,,2013-03-29 05:43:00,
2013-03-29 00:52:00,43.0,36.0,29.67,SE,131,5.0,8.0,76,3.06,,,-99.99,,2013-03-29 05:52:00,
2013-03-29 01:02:00,43.0,36.0,29.67,SE,127,5.0,8.0,76,3.06,,,-99.99,,2013-03-29 06:02:00,
2013-03-29 01:12:00,43.0,36.0,29.67,SE,127,5.0,8.0,76,3.06,,,-99.99,,2013-03-29 06:12:00,
2013-03-29 01:23:00,42.0,35.0,29.67,SE,125,2.0,5.0,76,3.06,,,-99.99,,2013-03-29 06:23:00,
2013-03-29 01:32:00,41.0,35.0,29.67,SE,131,5.0,6.0,78,3.06,,,-99.99,,2013-03-29 06:32:00,
2013-03-29 01:42:00,41.0,35.0,29.67,SE,131,5.0,6.0,78,3.06,,,-99.99,,2013-03-29 06:42:00,
2013-03-29 01:52:00,41.0,35.0,29.65,North,0,0.0,0.0,78,3.06,,,-99.99,,2013-03-29 06:52:00,
2013-03-29 02:02:00,41.0,35.0,29.65,North,0,0.0,0.0,79,3.06,,,-99.99,,2013-03-29 07:02:00,
2013-03-29 02:12:00,41.0,35.0,29.65,North,0,0.0,0.0,79,3.06,,,-99.99,,2013-03-29 07:12:00,
2013-03-29 02:22:00,41.0,35.0,29.67,North,0,0.0,0.0,79,3.06,,,-99.99,,2013-03-29 07:22:00,
2013-03-29 02:32:00,40.0,34.0,29.67,North,0,0.0,0.0,80,3.06,,,-99.99,,2013-03-29 07:32:00,
2013-03-29 02:42:00,40.0,34.0,29.67,North,0,0.0,0.0,80,3.06,,,-99.99,,2013-03-29 07:42:00,
2013-03-29 02:52:00,39.0,34.0,29.66,North,0,0.0,0.0,81,3.06,,,-99.99,,2013-03-29 07:52:00,
2013-03-29 03:02:00,38.0,33.0,29.65,North,0,0.0,0.0,82,3.06,,,-99.99,,2013-03-29 08:02:00,
2013-03-29 03:12:00,38.0,33.0,29.65,North,0,0.0,0.0,82,3.06,,,-99.99,,2013-03-29 08:12:00,
2013-03-29 03:22:00,38.0,33.0,29.65,North,0,0.0,0.0,83,3.06,,,-99.99,,2013-03-29 08:22:00,
2013-03-29 03:32:00,39.0,35.0,29.64,South,172,2.0,6.0,84,3.06,,,-99.99,,2013-03-29 08:32:00,
2013-03-29 03:42:00,39.0,35.0,29.64,South,172,2.0,6.0,84,3.06,,,-99.99,,2013-03-29 08:42:00,
2013-03-29 03:53:00,39.0,34.0,29.65,North,0,0.0,0.0,83,3.06,,,-99.99,,2013-03-29 08:53:00,
2013-03-29 04:02:00,39.0,34.0,29.65,North,0,0.0,0.0,83,3.06,,,-99.99,,2013-03-29 09:02:00,
2013-03-29 04:12:00,39.0,34.0,29.65,North,0,0.0,0.0,83,3.06,,,-99.99,,2013-03-29 09:12:00,
2013-03-29 04:22:00,39.0,35.0,29.65,North,0,0.0,0.0,84,3.06,,,-99.99,,2013-03-29 09:22:00,
2013-03-29 04:32:00,38.0,34.0,29.64,North,0,0.0,0.0,84,3.06,,,-99.99,,2013-03-29 09:32:00,
2013-03-29 04:42:00,38.0,34.0,29.64,North,0,0.0,0.0,84,3.06,,,-99.99,,2013-03-29 09:42:00,
2013-03-29 04:52:00,36.0,32.0,29.65,North,0,0.0,0.0,86,3.06,,,-99.99,,2013-03-29 09:52:00,
2013-03-29 05:02:00,35.0,32.0,29.64,North,0,0.0,0.0,87,3.06,,,-99.99,,2013-03-29 10:02:00,
2013-03-29 05:12:00,35.0,32.0,29.64,North,0,0.0,0.0,87,3.06,,,-99.99,,2013-03-29 10:12:00,
2013-03-29 05:22:00,34.0,31.0,29.65,North,0,0.0,0.0,88,3.06,,,-99.99,,2013-03-29 10:22:00,
2013-03-29 05:33:00,34.0,31.0,29.64,North,0,0.0,0.0,88,3.06,,,-99.99,,2013-03-29 10:33:00,
2013-03-29 05:42:00,34.0,31.0,29.64,North,0,0.0,0.0,88,3.06,,,-99.99,,2013-03-29 10:42:00,
2013-03-29 05:52:00,34.0,31.0,29.65,North,0,0.0,0.0,89,3.06,,,-99.99,,2013-03-29 10:52:00,
2013-03-29 06:03:00,34.0,31.0,29.64,North,0,0.0,0.0,90,3.06,,,-99.99,,2013-03-29 11:03:00,
2013-03-29 06:12:00,34.0,31.0,29.64,North,0,0.0,0.0,90,3.06,,,-99.99,,2013-03-29 11:12:00,
2013-03-29 06:23:00,33.0,30.0,29.65,North,0,0.0,0.0,90,3.06,,,-99.99,,2013-03-29 11:23:00,
2013-03-29 06:32:00,32.0,30.0,29.66,North,0,0.0,0.0,91,3.06,,,-99.99,,2013-03-29 11:32:00,
2013-03-29 06:42:00,32.0,30.0,29.66,North,0,0.0,0.0,91,3.06,,,-99.99,,2013-03-29 11:42:00,
2013-03-29 06:52:00,33.0,31.0,29.66,North,0,0.0,0.0,91,3.06,,,-99.99,,2013-03-29 11:52:00,
2013-03-29 07:02:00,32.0,30.0,29.67,North,0,0.0,0.0,91,3.06,,,-99.99,,2013-03-29 12:02:00,
2013-03-29 07:12:00,32.0,30.0,29.67,North,0,0.0,0.0,91,3.06,,,-99.99,,2013-03-29 12:12:00,
2013-03-29 07:22:00,32.0,30.0,29.67,North,0,0.0,0.0,91,3.06,,,-99.99,,2013-03-29 12:22:00,
2013-03-29 07:32:00,31.0,29.0,29.68,North,0,0.0,0.0,92,3.06,,,-99.99,,2013-03-29 12:32:00,
2013-03-29 07:42:00,31.0,29.0,29.68,North,0,0.0,0.0,92,3.06,,,-99.99,,2013-03-29 12:42:00,
2013-03-29 07:53:00,32.0,30.0,29.67,North,0,0.0,0.0,92,3.06,,,-99.99,,2013-03-29 12:53:00,
2013-03-29 08:02:00,32.0,30.0,29.69,North,0,0.0,0.0,92,3.06,,,-99.99,,2013-03-29 13:02:00,
2013-03-29 08:12:00,32.0,30.0,29.69,North,0,0.0,0.0,92,3.06,,,-99.99,,2013-03-29 13:12:00,
2013-03-29 08:22:00,33.0,31.0,29.69,North,0,0.0,0.0,92,3.06,,,-99.99,,2013-03-29 13:22:00,
2013-03-29 08:32:00,34.0,32.0,29.69,North,0,0.0,0.0,93,3.06,,,-99.99,,2013-03-29 13:32:00,
2013-03-29 08:42:00,34.0,32.0,29.69,North,0,0.0,0.0,93,3.06,,,-99.99,,2013-03-29 13:42:00,
2013-03-29 08:53:00,37.0,35.0,29.69,North,0,0.0,0.0,93,3.06,,,-99.99,,2013-03-29 13:53:00,
2013-03-29 09:02:00,38.0,36.0,29.69,SE,128,4.0,7.0,93,3.06,,,-99.99,,2013-03-29 14:02:00,
2013-03-29 09:12:00,38.0,36.0,29.69,SE,128,4.0,7.0,93,3.06,,,-99.99,,2013-03-29 14:12:00,
2013-03-29 09:22:00,40.0,38.0,29.69,South,169,7.0,9.0,93,3.06,,,-99.99,,2013-03-29 14:22:00,
2013-03-29 09:32:00,41.0,39.0,29.70,South,170,8.0,11.0,92,3.06,,,-99.99,,2013-03-29 14:32:00,
2013-03-29 09:42:00,41.0,39.0,29.70,South,170,8.0,11.0,92,3.06,,,-99.99,,2013-03-29 14:42:00,
2013-03-29 09:52:00,43.0,41.0,29.70,South,181,7.0,9.0,91,3.06,,,-99.99,,2013-03-29 14:52:00,
2013-03-29 10:02:00,45.0,42.0,29.68,SSE,152,8.0,11.0,88,3.06,,,-99.99,,2013-03-29 15:02:00,
2013-03-29 10:12:00,45.0,42.0,29.68,SSE,152,8.0,11.0,88,3.06,,,-99.99,,2013-03-29 15:12:00,
2013-03-29 10:22:00,46.0,42.0,29.68,SE,143,8.0,11.0,86,3.06,,,-99.99,,2013-03-29 15:22:00,
2013-03-29 10:33:00,48.0,43.0,29.69,North,349,11.0,13.0,84,3.06,,,-99.99,,2013-03-29 15:33:00,
2013-03-29 10:43:00,48.0,43.0,29.69,North,349,11.0,13.0,84,3.06,,,-99.99,,2013-03-29 15:43:00,
2013-03-29 10:53:00,49.0,44.0,29.69,SSE,150,8.0,11.0,82,3.06,,,-99.99,,2013-03-29 15:53:00,
2013-03-29 11:03:00,50.0,44.0,29.69,SSE,152,9.0,13.0,80,3.06,,,-99.99,,2013-03-29 16:03:00,
2013-03-29 11:12:00,50.0,44.0,29.69,SSE,152,9.0,13.0,80,3.06,,,-99.99,,2013-03-29 16:12:00,
2013-03-29 11:23:00,52.0,45.0,29.69,SSE,158,9.0,11.0,78,3.06,,,-99.99,,2013-03-29 16:23:00,
2013-03-29 11:32:00,53.0,45.0,29.69,SE,141,10.0,13.0,75,3.06,,,-99.99,,2013-03-29 16:32:00,
2013-03-29 11:42:00,53.0,45.0,29.69,SE,141,10.0,13.0,75,3.06,,,-99.99,,2013-03-29 16:42:00,
2013-03-29 11:53:00,55.0,46.0,29.69,South,177,10.0,13.0,72,3.06,,,-99.99,,2013-03-29 16:53:00,
2013-03-29 12:03:00,56.0,46.0,29.66,SSE,155,11.0,14.0,69,3.06,,,-99.99,,2013-03-29 17:03:00,
2013-03-29 12:12:00,56.0,46.0,29.66,SSE,155,11.0,14.0,69,3.06,,,-99.99,,2013-03-29 17:12:00,
2013-03-29 12:22:00,58.0,46.0,29.67,SE,136,10.0,17.0,65,3.06,,,-99.99,,2013-03-29 17:22:00,
2013-03-29 12:33:00,59.0,46.0,29.65,SSE,150,12.0,17.0,62,3.06,,,-99.99,,2013-03-29 17:33:00,
2013-03-29 12:42:00,59.0,46.0,29.65,SSE,150,12.0,17.0,62,3.06,,,-99.99,,2013-03-29 17:42:00,
2013-03-29 12:52:00,59.0,46.0,29.67,SSE,163,11.0,15.0,61,3.06,,,-99.99,,2013-03-29 17:52:00,
2013-03-29 13:02:00,61.0,46.0,29.64,SE,124,9.0,12.0,58,3.06,,,-99.99,,2013-03-29 18:02:00,
2013-03-29 13:12:00,61.0,46.0,29.64,SE,124,9.0,12.0,58,3.06,,,-99.99,,2013-03-29 18:12:00,
2013-03-29 13:22:00,61.0,46.0,29.65,SE,142,10.0,14.0,57,3.06,,,-99.99,,2013-03-29 18:22:00,
2013-03-29 13:32:00,62.0,46.0,29.65,SSE,159,11.0,15.0,56,3.06,,,-99.99,,2013-03-29 18:32:00,
2013-03-29 13:42:00,62.0,46.0,29.65,SSE,159,11.0,15.0,56,3.06,,,-99.99,,2013-03-29 18:42:00,
2013-03-29 13:52:00,63.0,45.0,29.62,SSE,150,11.0,16.0,52,3.06,,,-99.99,,2013-03-29 18:52:00,
2013-03-29 14:02:00,63.0,44.0,29.63,SSE,162,12.0,17.0,49,3.06,,,-99.99,,2013-03-29 19:02:00,
2013-03-29 14:12:00,64.0,43.0,29.63,South,183,10.0,16.0,47,3.06,,,-99.99,,2013-03-29 19:12:00,
2013-03-29 14:22:00,64.0,43.0,29.63,South,183,10.0,16.0,47,3.06,,,-99.99,,2013-03-29 19:22:00,
2013-03-29 14:32:00,65.0,44.0,29.62,SSE,165,10.0,15.0,46,3.06,,,-99.99,,2013-03-29 19:32:00,
2013-03-29 14:42:00,65.0,44.0,29.62,SSE,165,10.0,15.0,46,3.06,,,-99.99,,2013-03-29 19:42:00,
2013-03-29 14:52:00,65.0,42.0,29.62,SSE,166,11.0,17.0,43,3.06,,,-99.99,,2013-03-29 19:52:00,
2013-03-29 15:02:00,66.0,43.0,29.61,South,174,9.0,13.0,44,3.06,,,-99.99,,2013-03-29 20:02:00,
2013-03-29 15:12:00,66.0,43.0,29.61,South,174,9.0,13.0,44,3.06,,,-99.99,,2013-03-29 20:12:00,
2013-03-29 15:22:00,66.0,42.0,29.59,SSE,167,11.0,17.0,42,3.06,,,-99.99,,2013-03-29 20:22:00,
2013-03-29 15:32:00,67.0,41.0,29.60,SE,134,12.0,15.0,39,3.06,,,-99.99,,2013-03-29 20:32:00,
2013-03-29 15:42:00,67.0,41.0,29.60,SE,134,12.0,15.0,39,3.06,,,-99.99,,2013-03-29 20:42:00,
2013-03-29 15:52:00,67.0,40.0,29.58,SE,127,14.0,19.0,37,3.06,,,-99.99,,2013-03-29 20:52:00,
2013-03-29 16:02:00,68.0,41.0,29.59,SSE,153,11.0,17.0,37,3.06,,,-99.99,,2013-03-29 21:02:00,
2013-03-29 16:12:00,68.0,41.0,29.59,SSE,153,11.0,17.0,37,3.06,,,-99.99,,2013-03-29 21:12:00,
2013-03-29 16:22:00,68.0,40.0,29.57,SSE,162,12.0,16.0,36,3.06,,,-99.99,,2013-03-29 21:22:00,
2013-03-29 16:32:00,68.0,41.0,29.58,SSE,155,11.0,16.0,37,3.06,,,-99.99,,2013-03-29 21:32:00,
2013-03-29 16:42:00,68.0,41.0,29.58,SSE,155,11.0,16.0,37,3.06,,,-99.99,,2013-03-29 21:42:00,
2013-03-29 16:53:00,68.0,40.0,29.57,South,179,12.0,19.0,36,3.06,,,-99.99,,2013-03-29 21:53:00,
2013-03-29 17:03:00,68.0,39.0,29.57,SSE,163,11.0,15.0,35,3.06,,,-99.99,,2013-03-29 22:03:00,
2013-03-29 17:12:00,68.0,39.0,29.57,SSE,163,11.0,15.0,35,3.06,,,-99.99,,2013-03-29 22:12:00,
2013-03-29 17:22:00,69.0,39.0,29.57,SSE,166,10.0,13.0,34,3.06,,,-99.99,,2013-03-29 22:22:00,
2013-03-29 17:33:00,69.0,39.0,29.57,SSE,155,11.0,18.0,34,3.06,,,-99.99,,2013-03-29 22:33:00,
2013-03-29 17:42:00,69.0,39.0,29.57,SSE,155,11.0,18.0,34,3.06,,,-99.99,,2013-03-29 22:42:00,
2013-03-29 17:53:00,69.0,40.0,29.57,SE,145,9.0,13.0,35,3.06,,,-99.99,,2013-03-29 22:53:00,
2013-03-29 18:02:00,69.0,41.0,29.55,South,170,7.0,15.0,36,3.06,,,-99.99,,2013-03-29 23:02:00,
2013-03-29 18:12:00,69.0,41.0,29.55,South,170,7.0,15.0,36,3.06,,,-99.99,,2013-03-29 23:12:00,
2013-03-29 18:22:00,68.0,41.0,29.56,South,172,8.0,11.0,37,3.06,,,-99.99,,2013-03-29 23:22:00,
2013-03-29 18:32:00,67.0,41.0,29.54,South,169,7.0,12.0,39,3.06,,,-99.99,,2013-03-29 23:32:00,
2013-03-29 18:42:00,67.0,41.0,29.54,South,169,7.0,12.0,39,3.06,,,-99.99,,2013-03-29 23:42:00,
2013-03-29 18:52:00,65.0,42.0,29.56,South,191,7.0,10.0,43,3.06,,,-99.99,,2013-03-29 23:52:00,
2013-03-29 19:03:00,64.0,42.0,29.55,SSE,152,7.0,10.0,44,3.06,,,-99.99,,2013-03-30 00:03:00,
2013-03-29 19:12:00,64.0,42.0,29.55,SSE,152,7.0,10.0,44,3.06,,,-99.99,,2013-03-30 00:12:00,
2013-03-29 19:22:00,63.0,42.0,29.55,South,176,7.0,9.0,47,3.06,,,-99.99,,2013-03-30 00:22:00,
2013-03-29 19:32:00,62.0,43.0,29.53,SE,143,4.0,7.0,50,3.06,,,-99.99,,2013-03-30 00:32:00,
2013-03-29 19:42:00,62.0,43.0,29.53,SE,143,4.0,7.0,50,3.06,,,-99.99,,2013-03-30 00:42:00,
2013-03-29 19:53:00,60.0,43.0,29.54,SSE,155,4.0,7.0,53,3.06,,,-99.99,,2013-03-30 00:53:00,
2013-03-29 20:02:00,60.0,43.0,29.52,SSE,158,4.0,7.0,54,3.06,,,-99.99,,2013-03-30 01:02:00,
2013-03-29 20:12:00,60.0,43.0,29.52,SSE,158,4.0,7.0,54,3.06,,,-99.99,,2013-03-30 01:12:00,
2013-03-29 20:22:00,58.0,42.0,29.53,SE,129,4.0,7.0,55,3.06,,,-99.99,,2013-03-30 01:22:00,
2013-03-29 20:32:00,58.0,42.0,29.51,SSE,150,3.0,6.0,56,3.06,,,-99.99,,2013-03-30 01:32:00,
2013-03-29 20:42:00,58.0,42.0,29.51,SSE,150,3.0,6.0,56,3.06,,,-99.99,,2013-03-30 01:42:00,
2013-03-29 20:53:00,57.0,41.0,29.52,SE,139,4.0,7.0,56,3.06,,,-99.99,,2013-03-30 01:53:00,
2013-03-29 21:02:00,57.0,41.0,29.50,SSE,149,5.0,8.0,56,3.06,,,-99.99,,2013-03-30 02:02:00,
2013-03-29 21:12:00,57.0,41.0,29.50,SSE,149,5.0,8.0,56,3.06,,,-99.99,,2013-03-30 02:12:00,
2013-03-29 21:22:00,57.0,42.0,29.52,SSE,160,5.0,7.0,58,3.06,,,-99.99,,2013-03-30 02:22:00,
2013-03-29 21:32:00,58.0,42.0,29.52,South,177,9.0,14.0,55,3.06,,,-99.99,,2013-03-30 02:32:00,
2013-03-29 21:42:00,58.0,42.0,29.52,South,177,9.0,14.0,55,3.06,,,-99.99,,2013-03-30 02:42:00,
2013-03-29 21:53:00,59.0,42.0,29.52,SSE,167,11.0,15.0,53,3.06,,,-99.99,,2013-03-30 02:53:00,
2013-03-29 22:02:00,60.0,41.0,29.51,SSE,155,17.0,23.0,50,3.06,,,-99.99,,2013-03-30 03:02:00,
2013-03-29 22:12:00,59.0,41.0,29.51,SSE,158,14.0,19.0,52,3.06,,,-99.99,,2013-03-30 03:12:00,
2013-03-29 22:22:00,59.0,41.0,29.51,SSE,158,14.0,19.0,52,3.06,,,-99.99,,2013-03-30 03:22:00,
2013-03-29 22:33:00,58.0,41.0,29.52,SSE,165,13.0,18.0,54,3.06,,,-99.99,,2013-03-30 03:33:00,
2013-03-29 22:43:00,58.0,41.0,29.52,SSE,165,13.0,18.0,54,3.06,,,-99.99,,2013-03-30 03:43:00,
2013-03-29 22:52:00,58.0,42.0,29.51,South,173,9.0,14.0,55,3.06,,,-99.99,,2013-03-30 03:52:00,
2013-03-29 23:02:00,57.0,41.0,29.54,SSE,163,9.0,12.0,56,3.06,,,-99.99,,2013-03-30 04:02:00,
2013-03-29 23:12:00,57.0,41.0,29.54,SSE,163,9.0,12.0,56,3.06,,,-99.99,,2013-03-30 04:12:00,
2013-03-29 23:23:00,56.0,41.0,29.52,ESE,122,9.0,13.0,58,3.06,,,-99.99,,2013-03-30 04:23:00,
2013-03-29 23:32:00,56.0,41.0,29.52,SE,143,6.0,8.0,58,3.06,,,-99.99,,2013-03-30 04:32:00,
2013-03-29 23:42:00,56.0,41.0,29.52,SE,143,6.0,8.0,58,3.06,,,-99.99,,2013-03-30 04:42:00,
2013-03-29 23:53:00,55.0,41.0,29.53,SE,136,4.0,7.0,59,3.06,,,-99.99,,2013-03-30 04:53:00,